sensor_id;sensor_type;location;lat;lon;timestamp;P1;durP1;ratioP1;P2;durP2;ratioP2
19800;SDS011;10060;48.274;12.214;2022-12-07T00:01:23;17.33;;;10.63;;
19800;SDS011;10060;48.274;12.214;2022-12-07T00:04:25;18.60;;;10.70;;
19800;SDS011;10060;48.274;12.214;2022-12-07T00:07:27;19.07;;;10.50;;
19800;SDS011;10060;48.274;12.214;2022-12-07T00:10:31;17.93;;;10.30;;
19800;SDS011;10060;48.274;12.214;2022-12-07T00:13:34;18.10;;;10.10;;
19800;SDS011;10060;48.274;12.214;2022-12-07T00:16:37;14.90;;;10.03;;
19800;SDS011;10060;48.274;12.214;2022-12-07T00:19:39;19.37;;;10.47;;
19800;SDS011;10060;48.274;12.214;2022-12-07T00:22:41;17.30;;;9.83;;
19800;SDS011;10060;48.274;12.214;2022-12-07T00:25:44;15.80;;;9.57;;
19800;SDS011;10060;48.274;12.214;2022-12-07T00:28:48;16.50;;;10.33;;
19800;SDS011;10060;48.274;12.214;2022-12-07T00:31:50;17.40;;;10.23;;
19800;SDS011;10060;48.274;12.214;2022-12-07T00:34:52;16.27;;;9.73;;
19800;SDS011;10060;48.274;12.214;2022-12-07T00:37:54;16.90;;;9.97;;
19800;SDS011;10060;48.274;12.214;2022-12-07T00:40:59;15.97;;;9.63;;
19800;SDS011;10060;48.274;12.214;2022-12-07T00:44:01;16.40;;;9.70;;
19800;SDS011;10060;48.274;12.214;2022-12-07T00:47:03;17.67;;;10.53;;
19800;SDS011;10060;48.274;12.214;2022-12-07T00:50:06;16.87;;;9.20;;
19800;SDS011;10060;48.274;12.214;2022-12-07T00:53:08;16.50;;;9.97;;
19800;SDS011;10060;48.274;12.214;2022-12-07T00:56:12;17.90;;;10.27;;
19800;SDS011;10060;48.274;12.214;2022-12-07T00:59:15;15.87;;;9.63;;
19800;SDS011;10060;48.274;12.214;2022-12-07T01:02:17;16.60;;;9.70;;
19800;SDS011;10060;48.274;12.214;2022-12-07T01:05:19;15.60;;;9.67;;
19800;SDS011;10060;48.274;12.214;2022-12-07T01:08:21;14.83;;;9.27;;
19800;SDS011;10060;48.274;12.214;2022-12-07T01:11:26;15.67;;;9.17;;
19800;SDS011;10060;48.274;12.214;2022-12-07T01:14:28;14.60;;;9.43;;
19800;SDS011;10060;48.274;12.214;2022-12-07T01:17:30;14.97;;;9.27;;
19800;SDS011;10060;48.274;12.214;2022-12-07T01:20:33;15.07;;;9.77;;
19800;SDS011;10060;48.274;12.214;2022-12-07T01:23:35;14.00;;;8.97;;
19800;SDS011;10060;48.274;12.214;2022-12-07T01:26:38;16.83;;;8.83;;
19800;SDS011;10060;48.274;12.214;2022-12-07T01:29:41;16.70;;;9.77;;
19800;SDS011;10060;48.274;12.214;2022-12-07T01:32:43;14.23;;;9.33;;
19800;SDS011;10060;48.274;12.214;2022-12-07T01:35:45;16.20;;;9.93;;
19800;SDS011;10060;48.274;12.214;2022-12-07T01:38:48;17.33;;;9.27;;
19800;SDS011;10060;48.274;12.214;2022-12-07T01:41:53;16.23;;;9.67;;
19800;SDS011;10060;48.274;12.214;2022-12-07T01:48:16;16.47;;;9.70;;
19800;SDS011;10060;48.274;12.214;2022-12-07T01:51:19;16.27;;;9.80;;
19800;SDS011;10060;48.274;12.214;2022-12-07T01:54:21;13.70;;;8.63;;
19800;SDS011;10060;48.274;12.214;2022-12-07T01:57:25;16.73;;;9.73;;
19800;SDS011;10060;48.274;12.214;2022-12-07T02:00:27;15.53;;;8.73;;
19800;SDS011;10060;48.274;12.214;2022-12-07T02:03:30;15.47;;;9.67;;
19800;SDS011;10060;48.274;12.214;2022-12-07T02:06:34;15.67;;;9.53;;
19800;SDS011;10060;48.274;12.214;2022-12-07T02:09:37;14.13;;;9.50;;
19800;SDS011;10060;48.274;12.214;2022-12-07T02:12:40;16.67;;;9.43;;
19800;SDS011;10060;48.274;12.214;2022-12-07T02:15:47;14.50;;;9.10;;
19800;SDS011;10060;48.274;12.214;2022-12-07T02:18:56;20.97;;;9.30;;
19800;SDS011;10060;48.274;12.214;2022-12-07T02:22:06;14.40;;;9.17;;
19800;SDS011;10060;48.274;12.214;2022-12-07T02:25:20;18.20;;;9.47;;
19800;SDS011;10060;48.274;12.214;2022-12-07T02:28:26;15.50;;;9.07;;
19800;SDS011;10060;48.274;12.214;2022-12-07T02:31:31;15.63;;;9.37;;
19800;SDS011;10060;48.274;12.214;2022-12-07T02:34:39;19.27;;;9.47;;
19800;SDS011;10060;48.274;12.214;2022-12-07T02:37:47;14.67;;;9.43;;
19800;SDS011;10060;48.274;12.214;2022-12-07T02:40:52;16.37;;;10.20;;
19800;SDS011;10060;48.274;12.214;2022-12-07T02:43:56;14.40;;;8.93;;
19800;SDS011;10060;48.274;12.214;2022-12-07T02:47:01;15.90;;;10.23;;
19800;SDS011;10060;48.274;12.214;2022-12-07T02:50:05;17.43;;;10.37;;
19800;SDS011;10060;48.274;12.214;2022-12-07T02:56:26;15.07;;;9.50;;
19800;SDS011;10060;48.274;12.214;2022-12-07T02:59:33;13.37;;;8.70;;
19800;SDS011;10060;48.274;12.214;2022-12-07T03:02:41;18.20;;;10.70;;
19800;SDS011;10060;48.274;12.214;2022-12-07T03:05:49;16.63;;;9.33;;
19800;SDS011;10060;48.274;12.214;2022-12-07T03:08:56;15.90;;;9.77;;
19800;SDS011;10060;48.274;12.214;2022-12-07T03:12:00;17.10;;;10.47;;
19800;SDS011;10060;48.274;12.214;2022-12-07T03:15:05;18.07;;;9.47;;
19800;SDS011;10060;48.274;12.214;2022-12-07T03:18:10;17.80;;;10.47;;
19800;SDS011;10060;48.274;12.214;2022-12-07T03:21:17;17.70;;;9.73;;
19800;SDS011;10060;48.274;12.214;2022-12-07T03:24:21;16.30;;;9.87;;
19800;SDS011;10060;48.274;12.214;2022-12-07T03:27:24;16.37;;;10.00;;
19800;SDS011;10060;48.274;12.214;2022-12-07T03:30:27;15.83;;;10.10;;
19800;SDS011;10060;48.274;12.214;2022-12-07T03:33:32;18.87;;;10.17;;
19800;SDS011;10060;48.274;12.214;2022-12-07T03:36:39;15.23;;;9.60;;
19800;SDS011;10060;48.274;12.214;2022-12-07T03:39:45;18.47;;;10.70;;
19800;SDS011;10060;48.274;12.214;2022-12-07T03:42:48;16.30;;;10.07;;
19800;SDS011;10060;48.274;12.214;2022-12-07T03:45:51;15.63;;;9.93;;
19800;SDS011;10060;48.274;12.214;2022-12-07T03:49:01;17.03;;;10.43;;
19800;SDS011;10060;48.274;12.214;2022-12-07T03:52:08;17.47;;;9.90;;
19800;SDS011;10060;48.274;12.214;2022-12-07T03:55:14;16.73;;;9.50;;
19800;SDS011;10060;48.274;12.214;2022-12-07T03:58:18;16.77;;;9.43;;
19800;SDS011;10060;48.274;12.214;2022-12-07T04:01:22;16.80;;;9.40;;
19800;SDS011;10060;48.274;12.214;2022-12-07T04:04:26;14.27;;;9.53;;
19800;SDS011;10060;48.274;12.214;2022-12-07T04:07:28;16.47;;;10.00;;
19800;SDS011;10060;48.274;12.214;2022-12-07T04:10:30;18.40;;;9.90;;
19800;SDS011;10060;48.274;12.214;2022-12-07T04:13:32;18.70;;;10.33;;
19800;SDS011;10060;48.274;12.214;2022-12-07T04:16:55;17.27;;;10.13;;
19800;SDS011;10060;48.274;12.214;2022-12-07T04:19:59;15.53;;;9.50;;
19800;SDS011;10060;48.274;12.214;2022-12-07T04:23:01;15.30;;;9.33;;
19800;SDS011;10060;48.274;12.214;2022-12-07T04:26:03;14.83;;;9.07;;
19800;SDS011;10060;48.274;12.214;2022-12-07T04:29:05;16.83;;;10.17;;
19800;SDS011;10060;48.274;12.214;2022-12-07T04:32:07;16.33;;;9.37;;
19800;SDS011;10060;48.274;12.214;2022-12-07T04:35:11;16.30;;;9.67;;
19800;SDS011;10060;48.274;12.214;2022-12-07T04:38:13;13.13;;;8.40;;
19800;SDS011;10060;48.274;12.214;2022-12-07T04:41:15;18.53;;;10.20;;
19800;SDS011;10060;48.274;12.214;2022-12-07T04:44:17;14.43;;;9.00;;
19800;SDS011;10060;48.274;12.214;2022-12-07T04:47:20;16.80;;;9.80;;
19800;SDS011;10060;48.274;12.214;2022-12-07T04:50:23;15.77;;;9.63;;
19800;SDS011;10060;48.274;12.214;2022-12-07T04:53:25;16.23;;;9.47;;
19800;SDS011;10060;48.274;12.214;2022-12-07T04:56:27;16.50;;;9.37;;
19800;SDS011;10060;48.274;12.214;2022-12-07T04:59:30;18.43;;;10.83;;
19800;SDS011;10060;48.274;12.214;2022-12-07T05:02:32;19.83;;;10.53;;
19800;SDS011;10060;48.274;12.214;2022-12-07T05:05:35;16.43;;;10.00;;
19800;SDS011;10060;48.274;12.214;2022-12-07T05:08:37;18.53;;;10.27;;
19800;SDS011;10060;48.274;12.214;2022-12-07T05:11:39;20.73;;;10.50;;
19800;SDS011;10060;48.274;12.214;2022-12-07T05:14:42;16.33;;;10.30;;
19800;SDS011;10060;48.274;12.214;2022-12-07T05:17:44;16.27;;;9.73;;
19800;SDS011;10060;48.274;12.214;2022-12-07T05:20:47;15.97;;;10.13;;
19800;SDS011;10060;48.274;12.214;2022-12-07T05:23:51;20.10;;;12.77;;
19800;SDS011;10060;48.274;12.214;2022-12-07T05:26:53;18.43;;;10.90;;
19800;SDS011;10060;48.274;12.214;2022-12-07T05:29:55;18.80;;;10.13;;
19800;SDS011;10060;48.274;12.214;2022-12-07T05:32:57;19.47;;;10.80;;
19800;SDS011;10060;48.274;12.214;2022-12-07T05:36:00;16.07;;;10.03;;
19800;SDS011;10060;48.274;12.214;2022-12-07T05:39:05;18.10;;;10.57;;
19800;SDS011;10060;48.274;12.214;2022-12-07T05:42:08;17.20;;;9.90;;
19800;SDS011;10060;48.274;12.214;2022-12-07T05:45:13;18.03;;;10.73;;
19800;SDS011;10060;48.274;12.214;2022-12-07T05:48:15;17.70;;;9.73;;
19800;SDS011;10060;48.274;12.214;2022-12-07T05:51:19;18.13;;;11.00;;
19800;SDS011;10060;48.274;12.214;2022-12-07T05:54:21;17.87;;;10.83;;
19800;SDS011;10060;48.274;12.214;2022-12-07T05:57:23;17.80;;;10.07;;
19800;SDS011;10060;48.274;12.214;2022-12-07T06:00:25;19.63;;;11.13;;
19800;SDS011;10060;48.274;12.214;2022-12-07T06:03:26;18.77;;;11.13;;
19800;SDS011;10060;48.274;12.214;2022-12-07T06:06:30;17.07;;;10.43;;
19800;SDS011;10060;48.274;12.214;2022-12-07T06:09:32;21.70;;;11.53;;
19800;SDS011;10060;48.274;12.214;2022-12-07T06:12:34;20.33;;;11.27;;
19800;SDS011;10060;48.274;12.214;2022-12-07T06:15:38;21.67;;;11.87;;
19800;SDS011;10060;48.274;12.214;2022-12-07T06:18:40;21.03;;;11.67;;
19800;SDS011;10060;48.274;12.214;2022-12-07T06:21:43;18.83;;;10.97;;
19800;SDS011;10060;48.274;12.214;2022-12-07T06:24:45;20.20;;;11.37;;
19800;SDS011;10060;48.274;12.214;2022-12-07T06:27:47;22.63;;;12.40;;
19800;SDS011;10060;48.274;12.214;2022-12-07T06:30:56;17.63;;;10.47;;
19800;SDS011;10060;48.274;12.214;2022-12-07T06:33:58;22.77;;;11.70;;
19800;SDS011;10060;48.274;12.214;2022-12-07T06:37:01;19.20;;;11.00;;
19800;SDS011;10060;48.274;12.214;2022-12-07T06:40:04;19.83;;;11.00;;
19800;SDS011;10060;48.274;12.214;2022-12-07T06:43:07;20.27;;;11.90;;
19800;SDS011;10060;48.274;12.214;2022-12-07T06:46:09;20.70;;;12.53;;
19800;SDS011;10060;48.274;12.214;2022-12-07T06:49:11;19.53;;;11.60;;
19800;SDS011;10060;48.274;12.214;2022-12-07T06:52:14;22.30;;;12.10;;
19800;SDS011;10060;48.274;12.214;2022-12-07T06:55:17;22.43;;;12.67;;
19800;SDS011;10060;48.274;12.214;2022-12-07T06:58:19;21.97;;;12.37;;
19800;SDS011;10060;48.274;12.214;2022-12-07T07:01:21;22.13;;;12.17;;
19800;SDS011;10060;48.274;12.214;2022-12-07T07:04:23;22.43;;;13.47;;
19800;SDS011;10060;48.274;12.214;2022-12-07T07:07:26;20.90;;;12.10;;
19800;SDS011;10060;48.274;12.214;2022-12-07T07:10:29;24.33;;;13.10;;
19800;SDS011;10060;48.274;12.214;2022-12-07T07:13:31;24.63;;;15.00;;
19800;SDS011;10060;48.274;12.214;2022-12-07T07:16:33;24.57;;;13.20;;
19800;SDS011;10060;48.274;12.214;2022-12-07T07:19:35;21.50;;;12.23;;
19800;SDS011;10060;48.274;12.214;2022-12-07T07:22:39;22.23;;;12.77;;
19800;SDS011;10060;48.274;12.214;2022-12-07T07:25:41;24.97;;;13.13;;
19800;SDS011;10060;48.274;12.214;2022-12-07T07:28:43;22.90;;;12.83;;
19800;SDS011;10060;48.274;12.214;2022-12-07T07:31:45;24.77;;;12.80;;
19800;SDS011;10060;48.274;12.214;2022-12-07T07:34:47;25.33;;;14.00;;
19800;SDS011;10060;48.274;12.214;2022-12-07T07:37:50;23.87;;;13.20;;
19800;SDS011;10060;48.274;12.214;2022-12-07T07:40:53;25.33;;;13.67;;
19800;SDS011;10060;48.274;12.214;2022-12-07T07:43:55;24.47;;;13.83;;
19800;SDS011;10060;48.274;12.214;2022-12-07T07:46:57;22.63;;;12.57;;
19800;SDS011;10060;48.274;12.214;2022-12-07T07:49:59;21.63;;;12.87;;
19800;SDS011;10060;48.274;12.214;2022-12-07T07:53:02;23.97;;;13.37;;
19800;SDS011;10060;48.274;12.214;2022-12-07T07:56:04;25.73;;;14.80;;
19800;SDS011;10060;48.274;12.214;2022-12-07T07:59:06;26.30;;;14.30;;
19800;SDS011;10060;48.274;12.214;2022-12-07T08:02:09;20.80;;;12.93;;
19800;SDS011;10060;48.274;12.214;2022-12-07T08:05:15;22.37;;;13.30;;
19800;SDS011;10060;48.274;12.214;2022-12-07T08:08:19;24.27;;;14.10;;
19800;SDS011;10060;48.274;12.214;2022-12-07T08:11:21;22.37;;;12.43;;
19800;SDS011;10060;48.274;12.214;2022-12-07T08:14:23;27.97;;;13.83;;
19800;SDS011;10060;48.274;12.214;2022-12-07T08:17:27;22.03;;;12.13;;
19800;SDS011;10060;48.274;12.214;2022-12-07T08:20:29;22.57;;;12.50;;
19800;SDS011;10060;48.274;12.214;2022-12-07T08:23:34;21.53;;;12.10;;
19800;SDS011;10060;48.274;12.214;2022-12-07T08:26:36;22.27;;;12.00;;
19800;SDS011;10060;48.274;12.214;2022-12-07T08:29:38;23.50;;;13.27;;
19800;SDS011;10060;48.274;12.214;2022-12-07T08:32:40;20.03;;;11.80;;
19800;SDS011;10060;48.274;12.214;2022-12-07T08:35:42;19.83;;;12.17;;
19800;SDS011;10060;48.274;12.214;2022-12-07T08:38:46;21.93;;;12.03;;
19800;SDS011;10060;48.274;12.214;2022-12-07T08:41:48;23.53;;;12.83;;
19800;SDS011;10060;48.274;12.214;2022-12-07T08:44:50;20.90;;;11.87;;
19800;SDS011;10060;48.274;12.214;2022-12-07T08:47:53;22.47;;;12.23;;
19800;SDS011;10060;48.274;12.214;2022-12-07T08:50:57;22.77;;;12.67;;
19800;SDS011;10060;48.274;12.214;2022-12-07T08:54:00;21.50;;;12.33;;
19800;SDS011;10060;48.274;12.214;2022-12-07T08:57:03;20.13;;;12.50;;
19800;SDS011;10060;48.274;12.214;2022-12-07T09:00:06;20.70;;;12.37;;
19800;SDS011;10060;48.274;12.214;2022-12-07T09:03:08;21.97;;;13.03;;
19800;SDS011;10060;48.274;12.214;2022-12-07T09:06:11;22.90;;;13.13;;
19800;SDS011;10060;48.274;12.214;2022-12-07T09:09:14;20.13;;;11.73;;
19800;SDS011;10060;48.274;12.214;2022-12-07T09:12:16;21.27;;;12.13;;
19800;SDS011;10060;48.274;12.214;2022-12-07T09:15:18;19.53;;;11.87;;
19800;SDS011;10060;48.274;12.214;2022-12-07T09:18:20;20.50;;;12.90;;
19800;SDS011;10060;48.274;12.214;2022-12-07T09:21:24;23.00;;;13.73;;
19800;SDS011;10060;48.274;12.214;2022-12-07T09:24:27;21.47;;;12.13;;
19800;SDS011;10060;48.274;12.214;2022-12-07T09:27:29;21.73;;;12.00;;
19800;SDS011;10060;48.274;12.214;2022-12-07T09:30:32;22.43;;;11.73;;
19800;SDS011;10060;48.274;12.214;2022-12-07T09:33:34;18.50;;;11.60;;
19800;SDS011;10060;48.274;12.214;2022-12-07T09:36:36;18.07;;;11.17;;
19800;SDS011;10060;48.274;12.214;2022-12-07T09:39:39;20.57;;;11.97;;
19800;SDS011;10060;48.274;12.214;2022-12-07T09:42:42;20.57;;;12.13;;
19800;SDS011;10060;48.274;12.214;2022-12-07T09:45:45;18.23;;;10.57;;
19800;SDS011;10060;48.274;12.214;2022-12-07T09:48:49;16.63;;;10.20;;
19800;SDS011;10060;48.274;12.214;2022-12-07T09:51:59;20.90;;;11.83;;
19800;SDS011;10060;48.274;12.214;2022-12-07T09:55:03;20.23;;;11.47;;
19800;SDS011;10060;48.274;12.214;2022-12-07T09:58:12;20.47;;;11.47;;
19800;SDS011;10060;48.274;12.214;2022-12-07T10:01:19;18.90;;;10.73;;
19800;SDS011;10060;48.274;12.214;2022-12-07T10:04:22;18.90;;;10.43;;
19800;SDS011;10060;48.274;12.214;2022-12-07T10:07:25;19.63;;;11.00;;
19800;SDS011;10060;48.274;12.214;2022-12-07T10:10:30;17.87;;;10.67;;
19800;SDS011;10060;48.274;12.214;2022-12-07T10:13:34;19.93;;;10.30;;
19800;SDS011;10060;48.274;12.214;2022-12-07T10:16:37;18.67;;;11.33;;
19800;SDS011;10060;48.274;12.214;2022-12-07T10:19:39;18.90;;;11.33;;
19800;SDS011;10060;48.274;12.214;2022-12-07T10:22:53;24.23;;;12.60;;
19800;SDS011;10060;48.274;12.214;2022-12-07T10:25:57;22.13;;;12.03;;
19800;SDS011;10060;48.274;12.214;2022-12-07T10:28:59;18.70;;;10.10;;
19800;SDS011;10060;48.274;12.214;2022-12-07T10:32:03;18.60;;;11.13;;
19800;SDS011;10060;48.274;12.214;2022-12-07T10:35:21;17.83;;;10.33;;
19800;SDS011;10060;48.274;12.214;2022-12-07T10:38:24;16.73;;;10.37;;
19800;SDS011;10060;48.274;12.214;2022-12-07T10:41:28;16.63;;;9.73;;
19800;SDS011;10060;48.274;12.214;2022-12-07T10:44:31;15.27;;;9.97;;
19800;SDS011;10060;48.274;12.214;2022-12-07T10:47:34;18.00;;;10.03;;
19800;SDS011;10060;48.274;12.214;2022-12-07T10:50:45;15.30;;;8.90;;
19800;SDS011;10060;48.274;12.214;2022-12-07T10:53:51;16.17;;;9.30;;
19800;SDS011;10060;48.274;12.214;2022-12-07T10:57:03;15.80;;;9.37;;
19800;SDS011;10060;48.274;12.214;2022-12-07T11:00:11;18.07;;;9.60;;
19800;SDS011;10060;48.274;12.214;2022-12-07T11:03:22;18.57;;;10.47;;
19800;SDS011;10060;48.274;12.214;2022-12-07T11:06:27;18.60;;;9.67;;
19800;SDS011;10060;48.274;12.214;2022-12-07T11:13:04;16.77;;;10.00;;
19800;SDS011;10060;48.274;12.214;2022-12-07T11:16:10;19.37;;;9.67;;
19800;SDS011;10060;48.274;12.214;2022-12-07T11:19:19;16.87;;;9.53;;
19800;SDS011;10060;48.274;12.214;2022-12-07T11:22:25;17.43;;;9.97;;
19800;SDS011;10060;48.274;12.214;2022-12-07T11:25:31;16.43;;;9.67;;
19800;SDS011;10060;48.274;12.214;2022-12-07T11:28:39;16.10;;;8.97;;
19800;SDS011;10060;48.274;12.214;2022-12-07T11:31:48;14.17;;;8.40;;
19800;SDS011;10060;48.274;12.214;2022-12-07T11:34:57;11.80;;;7.33;;
19800;SDS011;10060;48.274;12.214;2022-12-07T11:38:10;13.10;;;7.67;;
19800;SDS011;10060;48.274;12.214;2022-12-07T11:41:13;13.47;;;7.97;;
19800;SDS011;10060;48.274;12.214;2022-12-07T11:44:24;15.17;;;8.13;;
19800;SDS011;10060;48.274;12.214;2022-12-07T11:47:30;13.20;;;8.27;;
19800;SDS011;10060;48.274;12.214;2022-12-07T11:50:37;11.80;;;7.77;;
19800;SDS011;10060;48.274;12.214;2022-12-07T11:53:41;15.87;;;9.23;;
19800;SDS011;10060;48.274;12.214;2022-12-07T11:56:46;13.87;;;8.17;;
19800;SDS011;10060;48.274;12.214;2022-12-07T11:59:51;15.03;;;8.93;;
19800;SDS011;10060;48.274;12.214;2022-12-07T12:02:55;14.80;;;8.90;;
19800;SDS011;10060;48.274;12.214;2022-12-07T12:06:00;13.87;;;8.30;;
19800;SDS011;10060;48.274;12.214;2022-12-07T12:09:03;14.37;;;7.93;;
19800;SDS011;10060;48.274;12.214;2022-12-07T12:15:29;10.03;;;5.97;;
19800;SDS011;10060;48.274;12.214;2022-12-07T12:18:39;9.23;;;5.97;;
19800;SDS011;10060;48.274;12.214;2022-12-07T12:21:44;7.90;;;5.63;;
19800;SDS011;10060;48.274;12.214;2022-12-07T12:24:49;10.90;;;5.70;;
19800;SDS011;10060;48.274;12.214;2022-12-07T12:27:52;11.40;;;6.63;;
19800;SDS011;10060;48.274;12.214;2022-12-07T12:31:05;11.27;;;7.30;;
19800;SDS011;10060;48.274;12.214;2022-12-07T12:37:42;11.80;;;7.00;;
19800;SDS011;10060;48.274;12.214;2022-12-07T12:40:44;11.27;;;6.93;;
19800;SDS011;10060;48.274;12.214;2022-12-07T12:43:50;12.47;;;7.80;;
19800;SDS011;10060;48.274;12.214;2022-12-07T12:46:54;13.83;;;8.27;;
19800;SDS011;10060;48.274;12.214;2022-12-07T12:50:10;12.80;;;7.90;;
19800;SDS011;10060;48.274;12.214;2022-12-07T12:53:15;10.73;;;7.10;;
19800;SDS011;10060;48.274;12.214;2022-12-07T12:56:30;15.93;;;8.37;;
19800;SDS011;10060;48.274;12.214;2022-12-07T12:59:37;13.77;;;8.77;;
19800;SDS011;10060;48.274;12.214;2022-12-07T13:02:46;13.20;;;8.80;;
19800;SDS011;10060;48.274;12.214;2022-12-07T13:05:49;13.83;;;8.43;;
19800;SDS011;10060;48.274;12.214;2022-12-07T13:09:18;12.63;;;8.40;;
19800;SDS011;10060;48.274;12.214;2022-12-07T13:12:22;18.00;;;10.27;;
19800;SDS011;10060;48.274;12.214;2022-12-07T13:15:31;17.23;;;10.00;;
19800;SDS011;10060;48.274;12.214;2022-12-07T13:18:34;18.17;;;10.30;;
19800;SDS011;10060;48.274;12.214;2022-12-07T13:21:40;17.70;;;11.10;;
19800;SDS011;10060;48.274;12.214;2022-12-07T13:24:44;17.20;;;10.03;;
19800;SDS011;10060;48.274;12.214;2022-12-07T13:27:48;17.63;;;10.70;;
19800;SDS011;10060;48.274;12.214;2022-12-07T13:31:02;14.00;;;8.80;;
19800;SDS011;10060;48.274;12.214;2022-12-07T13:34:27;14.30;;;8.57;;
19800;SDS011;10060;48.274;12.214;2022-12-07T13:37:30;16.20;;;9.20;;
19800;SDS011;10060;48.274;12.214;2022-12-07T13:40:35;14.53;;;8.53;;
19800;SDS011;10060;48.274;12.214;2022-12-07T13:43:48;16.60;;;9.20;;
19800;SDS011;10060;48.274;12.214;2022-12-07T13:46:53;17.63;;;9.63;;
19800;SDS011;10060;48.274;12.214;2022-12-07T13:49:56;16.30;;;9.63;;
19800;SDS011;10060;48.274;12.214;2022-12-07T13:52:59;15.93;;;9.63;;
19800;SDS011;10060;48.274;12.214;2022-12-07T13:56:03;16.73;;;10.47;;
19800;SDS011;10060;48.274;12.214;2022-12-07T13:59:05;19.57;;;11.17;;
19800;SDS011;10060;48.274;12.214;2022-12-07T14:02:16;21.17;;;12.33;;
19800;SDS011;10060;48.274;12.214;2022-12-07T14:05:23;16.50;;;10.30;;
19800;SDS011;10060;48.274;12.214;2022-12-07T14:08:26;16.20;;;9.77;;
19800;SDS011;10060;48.274;12.214;2022-12-07T14:11:33;17.07;;;9.70;;
19800;SDS011;10060;48.274;12.214;2022-12-07T14:14:35;18.27;;;9.33;;
19800;SDS011;10060;48.274;12.214;2022-12-07T14:17:38;14.63;;;8.27;;
19800;SDS011;10060;48.274;12.214;2022-12-07T14:20:51;13.27;;;7.83;;
19800;SDS011;10060;48.274;12.214;2022-12-07T14:24:17;11.93;;;7.57;;
19800;SDS011;10060;48.274;12.214;2022-12-07T14:27:21;14.17;;;8.17;;
19800;SDS011;10060;48.274;12.214;2022-12-07T14:30:26;14.00;;;9.10;;
19800;SDS011;10060;48.274;12.214;2022-12-07T14:33:29;12.50;;;8.10;;
19800;SDS011;10060;48.274;12.214;2022-12-07T14:36:31;11.07;;;7.97;;
19800;SDS011;10060;48.274;12.214;2022-12-07T14:39:33;11.57;;;7.07;;
19800;SDS011;10060;48.274;12.214;2022-12-07T14:42:37;11.90;;;7.70;;
19800;SDS011;10060;48.274;12.214;2022-12-07T14:45:39;15.00;;;8.33;;
19800;SDS011;10060;48.274;12.214;2022-12-07T14:48:41;11.20;;;7.60;;
19800;SDS011;10060;48.274;12.214;2022-12-07T14:51:43;12.63;;;7.37;;
19800;SDS011;10060;48.274;12.214;2022-12-07T14:54:46;11.90;;;7.87;;
19800;SDS011;10060;48.274;12.214;2022-12-07T14:57:50;13.67;;;7.70;;
19800;SDS011;10060;48.274;12.214;2022-12-07T15:00:52;12.10;;;7.10;;
19800;SDS011;10060;48.274;12.214;2022-12-07T15:03:54;14.33;;;7.23;;
19800;SDS011;10060;48.274;12.214;2022-12-07T15:06:56;12.47;;;7.00;;
19800;SDS011;10060;48.274;12.214;2022-12-07T15:09:58;10.23;;;6.80;;
19800;SDS011;10060;48.274;12.214;2022-12-07T15:13:02;11.90;;;7.33;;
19800;SDS011;10060;48.274;12.214;2022-12-07T15:16:19;13.57;;;7.53;;
19800;SDS011;10060;48.274;12.214;2022-12-07T15:19:22;13.80;;;7.67;;
19800;SDS011;10060;48.274;12.214;2022-12-07T15:22:25;10.80;;;6.77;;
19800;SDS011;10060;48.274;12.214;2022-12-07T15:25:29;12.27;;;7.23;;
19800;SDS011;10060;48.274;12.214;2022-12-07T15:28:33;13.20;;;7.80;;
19800;SDS011;10060;48.274;12.214;2022-12-07T15:31:35;12.80;;;7.87;;
19800;SDS011;10060;48.274;12.214;2022-12-07T15:34:38;14.70;;;8.27;;
19800;SDS011;10060;48.274;12.214;2022-12-07T15:37:40;14.47;;;8.53;;
19800;SDS011;10060;48.274;12.214;2022-12-07T15:40:42;16.57;;;8.53;;
19800;SDS011;10060;48.274;12.214;2022-12-07T15:43:45;15.00;;;8.60;;
19800;SDS011;10060;48.274;12.214;2022-12-07T15:47:05;13.80;;;8.73;;
19800;SDS011;10060;48.274;12.214;2022-12-07T15:50:08;14.57;;;8.47;;
19800;SDS011;10060;48.274;12.214;2022-12-07T15:53:11;16.40;;;9.23;;
19800;SDS011;10060;48.274;12.214;2022-12-07T15:56:13;15.70;;;9.30;;
19800;SDS011;10060;48.274;12.214;2022-12-07T15:59:17;15.30;;;9.57;;
19800;SDS011;10060;48.274;12.214;2022-12-07T16:02:19;14.10;;;9.40;;
19800;SDS011;10060;48.274;12.214;2022-12-07T16:05:22;14.63;;;8.60;;
19800;SDS011;10060;48.274;12.214;2022-12-07T16:08:24;15.57;;;7.90;;
19800;SDS011;10060;48.274;12.214;2022-12-07T16:11:26;16.10;;;9.07;;
19800;SDS011;10060;48.274;12.214;2022-12-07T16:14:30;15.90;;;8.33;;
19800;SDS011;10060;48.274;12.214;2022-12-07T16:17:33;15.20;;;9.13;;
19800;SDS011;10060;48.274;12.214;2022-12-07T16:20:35;14.77;;;9.07;;
19800;SDS011;10060;48.274;12.214;2022-12-07T16:23:37;13.13;;;8.53;;
19800;SDS011;10060;48.274;12.214;2022-12-07T16:26:39;14.80;;;8.77;;
19800;SDS011;10060;48.274;12.214;2022-12-07T16:29:43;15.50;;;9.17;;
19800;SDS011;10060;48.274;12.214;2022-12-07T16:32:45;16.77;;;9.30;;
19800;SDS011;10060;48.274;12.214;2022-12-07T16:35:48;18.17;;;9.67;;
19800;SDS011;10060;48.274;12.214;2022-12-07T16:38:50;17.03;;;9.73;;
19800;SDS011;10060;48.274;12.214;2022-12-07T16:41:52;18.63;;;10.23;;
19800;SDS011;10060;48.274;12.214;2022-12-07T16:44:55;17.47;;;9.70;;
19800;SDS011;10060;48.274;12.214;2022-12-07T16:47:57;15.90;;;8.67;;
19800;SDS011;10060;48.274;12.214;2022-12-07T16:50:59;17.27;;;9.27;;
19800;SDS011;10060;48.274;12.214;2022-12-07T16:54:04;16.43;;;8.87;;
19800;SDS011;10060;48.274;12.214;2022-12-07T16:57:06;16.50;;;9.10;;
19800;SDS011;10060;48.274;12.214;2022-12-07T17:00:10;14.97;;;9.13;;
19800;SDS011;10060;48.274;12.214;2022-12-07T17:03:12;17.40;;;9.43;;
19800;SDS011;10060;48.274;12.214;2022-12-07T17:06:15;19.40;;;10.07;;
19800;SDS011;10060;48.274;12.214;2022-12-07T17:09:17;16.30;;;9.57;;
19800;SDS011;10060;48.274;12.214;2022-12-07T17:12:19;16.70;;;9.77;;
19800;SDS011;10060;48.274;12.214;2022-12-07T17:15:22;15.90;;;9.07;;
19800;SDS011;10060;48.274;12.214;2022-12-07T17:18:24;16.90;;;9.77;;
19800;SDS011;10060;48.274;12.214;2022-12-07T17:21:27;16.97;;;9.17;;
19800;SDS011;10060;48.274;12.214;2022-12-07T17:24:29;18.30;;;10.33;;
19800;SDS011;10060;48.274;12.214;2022-12-07T17:27:32;18.73;;;10.80;;
19800;SDS011;10060;48.274;12.214;2022-12-07T17:30:35;18.43;;;10.77;;
19800;SDS011;10060;48.274;12.214;2022-12-07T17:33:37;17.37;;;10.30;;
19800;SDS011;10060;48.274;12.214;2022-12-07T17:36:40;20.63;;;9.87;;
19800;SDS011;10060;48.274;12.214;2022-12-07T17:39:42;19.13;;;10.47;;
19800;SDS011;10060;48.274;12.214;2022-12-07T17:42:44;18.80;;;11.00;;
19800;SDS011;10060;48.274;12.214;2022-12-07T17:45:51;19.80;;;11.03;;
19800;SDS011;10060;48.274;12.214;2022-12-07T17:48:53;22.13;;;11.03;;
19800;SDS011;10060;48.274;12.214;2022-12-07T17:51:56;17.80;;;9.73;;
19800;SDS011;10060;48.274;12.214;2022-12-07T17:55:15;16.73;;;9.80;;
19800;SDS011;10060;48.274;12.214;2022-12-07T17:58:17;18.27;;;10.53;;
19800;SDS011;10060;48.274;12.214;2022-12-07T18:01:21;20.53;;;9.97;;
19800;SDS011;10060;48.274;12.214;2022-12-07T18:04:23;18.07;;;10.13;;
19800;SDS011;10060;48.274;12.214;2022-12-07T18:07:25;17.17;;;10.57;;